createdAt,value
2023-04-23T00:03:15.330Z,98922.66
2023-04-23T00:08:18.952Z,98939.03
2023-04-23T00:13:20.704Z,98936.59
2023-04-23T00:18:22.565Z,98966.66
2023-04-23T00:23:24.291Z,98881.31
2023-04-23T00:28:25.962Z,98951.16
2023-04-23T00:33:27.624Z,98899.88
2023-04-23T00:38:29.271Z,98986.63
2023-04-23T00:43:31.738Z,98975.56
2023-04-23T00:48:34.841Z,98945.13
2023-04-23T00:53:36.486Z,98987.53
2023-04-23T00:58:38.855Z,98957.50
2023-04-23T01:03:42.501Z,98962.81
2023-04-23T01:08:45.559Z,99002.25
2023-04-23T01:13:47.241Z,98979.59
2023-04-23T01:18:48.901Z,98996.25
2023-04-23T01:23:50.720Z,99001.50
2023-04-23T01:28:53.257Z,99017.22
2023-04-23T01:33:55.693Z,99028.97
2023-04-23T01:38:57.471Z,99033.38
2023-04-23T01:44:00.491Z,99009.81
2023-04-23T01:49:02.442Z,98993.06
2023-04-23T01:54:04.149Z,99047.16
2023-04-23T01:59:07.305Z,99057.59
2023-04-23T02:04:09.805Z,99039.66
2023-04-23T02:09:11.823Z,99145.63
2023-04-23T02:14:14.098Z,99071.03
2023-04-23T02:19:17.054Z,99083.75
2023-04-23T02:24:18.806Z,99117.94
2023-04-23T02:29:21.105Z,99068.03
2023-04-23T02:34:22.813Z,99059.16
2023-04-23T02:39:24.538Z,99084.19
2023-04-23T02:44:26.338Z,99086.81
2023-04-23T02:49:27.985Z,99080.53
2023-04-23T02:54:29.675Z,99037.34
2023-04-23T02:59:31.417Z,99132.69
2023-04-23T03:04:33.398Z,99149.38
2023-04-23T03:09:35.602Z,99044.53
2023-04-23T03:14:37.284Z,99102.66
2023-04-23T03:19:39.017Z,99076.63
2023-04-23T03:24:41.043Z,99135.81
2023-04-23T03:29:42.942Z,99103.69
2023-04-23T03:34:44.684Z,99118.75
2023-04-23T03:39:46.373Z,99136.59
2023-04-23T03:44:47.960Z,99058.34
2023-04-23T03:49:49.692Z,99155.94
2023-04-23T03:54:51.387Z,99161.69
2023-04-23T03:59:53.070Z,99092.06
2023-04-23T04:04:55.401Z,99171.97
2023-04-23T04:09:57.316Z,99218.72
2023-04-23T04:14:59.285Z,99124.38
2023-04-23T04:20:00.977Z,99087.25
2023-04-23T04:25:02.779Z,99136.34
2023-04-23T04:30:05.720Z,99107.97
2023-04-23T04:35:09.117Z,99130.44
2023-04-23T04:40:11.698Z,99126.91
2023-04-23T04:45:13.316Z,99139.47
2023-04-23T04:50:15.246Z,99095.16
2023-04-23T04:55:16.946Z,99135.63
2023-04-23T05:00:29.373Z,99100.44
2023-04-23T05:05:33.250Z,99101.63
2023-04-23T05:10:34.933Z,99133.78
2023-04-23T05:15:36.820Z,99123.22
2023-04-23T05:20:38.833Z,99081.22
2023-04-23T05:25:41.210Z,99089.41
2023-04-23T05:30:43.199Z,99102.09
2023-04-23T05:35:44.954Z,99180.56
2023-04-23T05:40:46.693Z,99075.59
2023-04-23T05:45:48.377Z,99107.22
2023-04-23T05:50:50.047Z,99156.47
2023-04-23T05:55:51.688Z,99142.97
2023-04-23T06:00:53.941Z,99183.63
2023-04-23T06:05:55.730Z,99208.91
2023-04-23T06:10:57.499Z,99135.41
2023-04-23T06:15:59.619Z,99120.97
2023-04-23T06:21:04.382Z,99221.69
2023-04-23T06:26:06.378Z,99222.53
2023-04-23T06:31:08.898Z,99176.13
2023-04-23T06:36:11.110Z,99153.13
2023-04-23T06:41:13.273Z,99135.03
2023-04-23T06:46:15.531Z,99133.78
2023-04-23T06:51:17.381Z,99154.94
2023-04-23T06:56:19.135Z,99032.34
2023-04-23T07:01:21.035Z,99137.06
2023-04-23T07:06:22.785Z,99022.41
2023-04-23T07:11:24.408Z,99037.25
2023-04-23T07:16:29.653Z,99056.88
2023-04-23T07:21:33.184Z,99011.81
2023-04-23T07:26:35.641Z,99020.75
2023-04-23T07:31:39.368Z,99078.13
2023-04-23T07:36:41.069Z,99016.84
2023-04-23T07:41:42.751Z,98905.94
2023-04-23T07:46:45.104Z,98991.31
2023-04-23T07:51:48.503Z,98988.09
2023-04-23T07:56:50.206Z,99046.13
2023-04-23T08:01:52.024Z,99010.47
2023-04-23T08:06:53.629Z,98880.63
2023-04-23T08:11:55.480Z,98932.31
2023-04-23T08:16:57.163Z,98910.81
2023-04-23T08:21:58.860Z,98854.94
2023-04-23T08:27:00.509Z,98911.88
2023-04-23T08:32:02.279Z,98889.03
2023-04-23T08:37:04.973Z,98921.59
2023-04-23T08:42:31.924Z,98871.41
2023-04-23T08:47:34.275Z,98846.94
2023-04-23T08:52:40.865Z,98794.41
2023-04-23T08:57:43.017Z,98792.88
2023-04-23T09:02:47.225Z,98821.75
2023-04-23T09:07:49.114Z,98803.84
2023-04-23T09:12:50.947Z,98810.63
2023-04-23T09:17:52.677Z,98797.63
2023-04-23T09:22:54.340Z,98716.69
2023-04-23T09:27:59.124Z,98785.47
2023-04-23T09:33:01.145Z,98659.66
2023-04-23T09:38:07.754Z,98664.97
2023-04-23T09:43:11.478Z,98648.34
2023-04-23T09:48:13.148Z,98707.44
2023-04-23T09:53:15.139Z,98676.78
2023-04-23T09:58:16.821Z,98708.00
2023-04-23T10:03:27.473Z,98674.41
2023-04-23T10:08:31.913Z,98677.78
2023-04-23T10:13:36.498Z,98680.06
2023-04-23T10:18:39.132Z,98663.13
2023-04-23T10:23:44.444Z,98667.31
2023-04-23T10:28:49.170Z,98651.81
2023-04-23T10:33:58.318Z,98648.16
2023-04-23T10:39:04.286Z,98625.31
2023-04-23T10:44:07.266Z,98604.19
2023-04-23T10:49:16.634Z,98587.28
2023-04-23T10:54:20.159Z,98586.53
2023-04-23T10:59:23.062Z,98536.25
2023-04-23T11:06:47.450Z,98729.50
2023-04-23T11:11:49.015Z,98621.44
2023-04-23T11:16:50.700Z,98630.28
2023-04-23T11:22:06.226Z,98680.09
2023-04-23T11:27:10.695Z,98647.19
2023-04-23T11:32:14.309Z,98616.88
2023-04-23T11:37:17.944Z,98595.06
2023-04-23T11:42:22.433Z,98563.13
2023-04-23T11:47:26.369Z,98572.34
2023-04-23T11:52:28.036Z,98562.09
2023-04-23T11:57:29.587Z,98579.03
2023-04-23T12:02:31.310Z,98537.25
2023-04-23T12:07:33.325Z,98532.13
2023-04-23T12:12:35.499Z,98563.13
2023-04-23T12:17:37.169Z,98561.06
2023-04-23T12:22:38.882Z,98551.03
2023-04-23T12:27:42.722Z,98466.06
2023-04-23T12:32:44.469Z,98469.63
2023-04-23T12:37:46.179Z,98458.56
2023-04-23T12:42:47.734Z,98473.97
2023-04-23T12:47:49.343Z,98515.16
2023-04-23T12:52:51.138Z,98468.50
2023-04-23T12:57:52.713Z,98455.88
2023-04-23T13:02:56.036Z,98422.22
2023-04-23T13:07:57.993Z,98425.47
2023-04-23T13:12:59.520Z,98392.63
2023-04-23T13:18:01.207Z,98382.00
2023-04-23T13:23:03.177Z,98394.88
2023-04-23T13:28:04.878Z,98372.03
2023-04-23T13:33:06.526Z,98277.28
2023-04-23T13:38:08.251Z,98352.06
2023-04-23T13:43:10.246Z,98285.38
2023-04-23T13:48:12.015Z,98321.97
2023-04-23T13:53:13.632Z,98307.91
2023-04-23T13:58:15.196Z,98289.66
2023-04-23T14:03:17.215Z,98276.66
2023-04-23T14:08:18.838Z,98296.53
2023-04-23T14:13:20.626Z,98251.22
2023-04-23T14:18:22.914Z,98304.72
2023-04-23T14:23:25.348Z,98285.47
2023-04-23T14:28:34.528Z,98233.97
2023-04-23T14:33:36.116Z,98213.66
2023-04-23T14:38:37.742Z,98197.63
2023-04-23T14:43:39.905Z,98199.59
2023-04-23T14:48:41.476Z,98195.94
2023-04-23T14:53:43.154Z,98176.50
2023-04-23T14:58:44.997Z,98177.50
2023-04-23T15:03:46.914Z,98125.81
2023-04-23T15:08:48.634Z,98165.56
2023-04-23T15:13:57.807Z,98191.84
2023-04-23T15:19:05.309Z,98270.31
2023-04-23T15:24:07.944Z,98347.09
2023-04-23T15:29:10.343Z,98252.19
2023-04-23T15:34:12.237Z,98332.16
2023-04-23T15:39:14.089Z,98368.16
2023-04-23T15:44:15.798Z,98328.69
2023-04-23T15:49:17.511Z,98241.03
2023-04-23T15:54:19.102Z,98205.41
2023-04-23T15:59:21.127Z,98255.19
2023-04-23T16:04:22.855Z,98275.69
2023-04-23T16:09:24.528Z,98318.81
2023-04-23T16:14:26.133Z,98273.09
2023-04-23T16:19:28.462Z,98334.63
2023-04-23T16:24:30.105Z,98309.94
2023-04-23T16:29:31.850Z,98365.28
2023-04-23T16:34:34.093Z,98291.25
2023-04-23T16:39:35.807Z,98302.00
2023-04-23T16:44:37.478Z,98402.50
2023-04-23T16:49:39.247Z,98442.38
2023-04-23T16:54:41.002Z,98408.78
2023-04-23T16:59:42.806Z,98286.00
2023-04-23T17:04:44.906Z,98300.34
2023-04-23T17:09:47.223Z,98375.91
2023-04-23T17:14:49.044Z,98400.81
2023-04-23T17:19:51.102Z,98388.81
2023-04-23T17:24:52.670Z,98349.88
2023-04-23T17:29:54.280Z,98313.09
2023-04-23T17:35:06.396Z,98297.53
2023-04-23T17:40:11.819Z,98330.84
2023-04-23T17:45:13.393Z,98346.50
2023-04-23T17:50:14.983Z,98370.16
2023-04-23T17:55:16.865Z,98468.59
2023-04-23T18:00:19.679Z,98400.31
2023-04-23T18:05:21.236Z,98401.00
2023-04-23T18:10:23.124Z,98443.66
2023-04-23T18:15:25.736Z,98476.69
2023-04-23T18:20:28.041Z,98482.88
2023-04-23T18:25:30.306Z,98508.41
2023-04-23T18:30:31.914Z,98482.78
2023-04-23T18:35:33.447Z,98463.91
2023-04-23T18:40:35.105Z,98564.28
2023-04-23T18:45:36.648Z,98541.38
2023-04-23T18:50:49.960Z,98515.44
2023-04-23T18:55:51.489Z,98570.94
2023-04-23T19:00:53.064Z,98516.94
2023-04-23T19:05:55.001Z,98598.09
2023-04-23T19:10:56.808Z,98648.22
2023-04-23T19:15:58.458Z,98632.63
2023-04-23T19:21:00.155Z,98601.78
2023-04-23T19:26:03.276Z,98572.44
2023-04-23T19:31:04.877Z,98645.84
2023-04-23T19:36:06.604Z,98602.41
2023-04-23T19:41:08.248Z,98650.25
2023-04-23T19:46:09.915Z,98663.28
2023-04-23T19:51:11.513Z,98634.38
2023-04-23T19:56:15.152Z,98623.44
2023-04-23T20:01:17.880Z,98640.13
2023-04-23T20:06:19.699Z,98604.41
2023-04-23T20:11:21.405Z,98654.78
2023-04-23T20:16:23.680Z,98671.97
2023-04-23T20:21:26.205Z,98689.16
2023-04-23T20:26:27.752Z,98663.03
2023-04-23T20:31:29.512Z,98727.28
2023-04-23T20:41:36.622Z,98689.47
2023-04-23T20:46:38.705Z,98673.84
2023-04-23T20:51:40.651Z,98731.13
2023-04-23T20:56:42.504Z,98749.38
2023-04-23T21:01:44.116Z,98762.28
2023-04-23T21:06:47.188Z,98750.13
2023-04-23T21:11:48.800Z,98728.59
2023-04-23T21:16:50.368Z,98776.69
2023-04-23T21:21:51.963Z,98764.72
2023-04-23T21:26:53.538Z,98724.88
2023-04-23T21:31:55.168Z,98755.00
2023-04-23T21:36:57.028Z,98729.22
2023-04-23T21:41:58.981Z,98768.84
2023-04-23T21:47:00.611Z,98791.38
2023-04-23T21:52:02.370Z,98777.63
2023-04-23T21:57:03.958Z,98784.66
2023-04-23T22:02:05.557Z,98782.78
2023-04-23T22:07:07.380Z,98752.84
2023-04-23T22:12:09.467Z,98787.25
2023-04-23T22:17:11.772Z,98775.28
2023-04-23T22:22:13.337Z,98791.75
2023-04-23T22:27:14.938Z,98843.19
2023-04-23T22:32:16.596Z,98797.31
2023-04-23T22:37:19.231Z,98772.16
2023-04-23T22:42:20.768Z,98768.47
2023-04-23T22:47:22.473Z,98753.56
2023-04-23T22:52:24.089Z,98763.69
2023-04-23T22:57:25.902Z,98752.31
2023-04-23T23:02:27.624Z,98734.03
2023-04-23T23:07:29.185Z,98744.31
2023-04-23T23:12:30.881Z,98706.94
2023-04-23T23:17:32.531Z,98738.94
2023-04-23T23:22:34.983Z,98763.28
2023-04-23T23:27:36.594Z,98748.66
2023-04-23T23:32:38.302Z,98752.59
2023-04-23T23:37:39.850Z,98717.22
2023-04-23T23:42:41.464Z,98769.19
2023-04-23T23:47:43.095Z,98732.28
2023-04-23T23:52:44.714Z,98728.44
2023-04-23T23:57:46.499Z,98730.72
